Time,TemperatureF,DewpointF,PressureIn,WindDirection,WindDirectionDegrees,WindSpeedMPH,WindSpeedGustMPH,Humidity,HourlyPrecipIn,Conditions,Clouds,dailyrainin,SolarRadiationWatts/m^2,SoftwareType,DateUTC
2013-01-24 00:02:00,45.0,34.0,-100.00,SSE,167,4.0,10.0,65,0.00,,,0.00,0.000000,,2013-01-24 08:02:00,
2013-01-24 00:12:00,45.0,34.0,-100.00,SSE,167,4.0,10.0,65,0.00,,,0.00,0.000000,,2013-01-24 08:12:00,
2013-01-24 00:22:00,45.0,34.0,-100.00,SSE,167,4.0,10.0,65,0.00,,,0.00,0.000000,,2013-01-24 08:22:00,
2013-01-24 00:43:00,45.0,32.0,-100.00,SSE,161,4.0,11.0,60,0.00,,,-99.99,0.000000,,2013-01-24 08:43:00,
2013-01-24 00:53:00,45.0,32.0,-100.00,SSE,161,4.0,11.0,60,0.00,,,-99.99,0.000000,,2013-01-24 08:53:00,
2013-01-24 01:02:00,45.0,32.0,-100.00,SSE,161,4.0,11.0,60,0.00,,,-99.99,0.000000,,2013-01-24 09:02:00,
2013-01-24 01:12:00,45.0,32.0,-100.00,SSE,161,4.0,11.0,60,0.00,,,-99.99,0.000000,,2013-01-24 09:12:00,
2013-01-24 01:22:00,45.0,32.0,-100.00,SSE,161,4.0,11.0,60,0.00,,,-99.99,0.000000,,2013-01-24 09:22:00,
2013-01-24 01:43:00,46.0,32.0,-100.00,South,176,4.0,11.0,57,0.00,,,0.00,0.000000,,2013-01-24 09:43:00,
2013-01-24 01:53:00,46.0,32.0,-100.00,South,176,4.0,11.0,57,0.00,,,0.00,0.000000,,2013-01-24 09:53:00,
2013-01-24 02:02:00,46.0,32.0,-100.00,South,176,4.0,11.0,57,0.00,,,0.00,0.000000,,2013-01-24 10:02:00,
2013-01-24 02:12:00,46.0,32.0,-100.00,South,176,4.0,11.0,57,0.00,,,0.00,0.000000,,2013-01-24 10:12:00,
2013-01-24 02:22:00,46.0,32.0,-100.00,South,176,4.0,11.0,57,0.00,,,0.00,0.000000,,2013-01-24 10:22:00,
2013-01-24 02:43:00,45.0,37.0,-100.00,SSE,153,6.0,15.0,72,0.00,,,0.00,0.000000,,2013-01-24 10:43:00,
2013-01-24 02:53:00,45.0,37.0,-100.00,SSE,153,6.0,15.0,72,0.00,,,0.00,0.000000,,2013-01-24 10:53:00,
2013-01-24 03:02:00,45.0,37.0,-100.00,SSE,153,6.0,15.0,72,0.00,,,0.00,0.000000,,2013-01-24 11:02:00,
2013-01-24 03:12:00,45.0,37.0,-100.00,SSE,153,6.0,15.0,72,0.00,,,0.00,0.000000,,2013-01-24 11:12:00,
2013-01-24 03:22:00,45.0,37.0,-100.00,SSE,153,6.0,15.0,72,0.00,,,0.00,0.000000,,2013-01-24 11:22:00,
2013-01-24 03:43:00,46.0,40.0,-100.00,SE,129,2.0,12.0,80,0.00,,,0.00,0.000000,,2013-01-24 11:43:00,
2013-01-24 03:53:00,46.0,40.0,-100.00,SE,129,2.0,12.0,80,0.00,,,0.00,0.000000,,2013-01-24 11:53:00,
2013-01-24 04:03:00,46.0,40.0,-100.00,SE,129,2.0,12.0,80,0.00,,,0.00,0.000000,,2013-01-24 12:03:00,
2013-01-24 04:12:00,46.0,40.0,-100.00,SE,129,2.0,12.0,80,0.00,,,0.00,0.000000,,2013-01-24 12:12:00,
2013-01-24 04:22:00,46.0,40.0,-100.00,SE,129,2.0,12.0,80,0.00,,,0.00,0.000000,,2013-01-24 12:22:00,
2013-01-24 04:43:00,47.0,43.0,-100.00,SE,144,3.0,11.0,87,0.00,,,0.00,0.000000,,2013-01-24 12:43:00,
2013-01-24 04:53:00,47.0,43.0,-100.00,SE,144,3.0,11.0,87,0.00,,,0.00,0.000000,,2013-01-24 12:53:00,
2013-01-24 05:02:00,47.0,43.0,-100.00,SE,144,3.0,11.0,87,0.00,,,0.00,0.000000,,2013-01-24 13:02:00,
2013-01-24 05:12:00,47.0,43.0,-100.00,SE,144,3.0,11.0,87,0.00,,,0.00,0.000000,,2013-01-24 13:12:00,
2013-01-24 05:22:00,47.0,43.0,-100.00,SE,144,3.0,11.0,87,0.00,,,0.00,0.000000,,2013-01-24 13:22:00,
2013-01-24 05:43:00,45.0,44.0,-100.00,South,169,2.0,9.0,97,0.00,,,0.00,0.000000,,2013-01-24 13:43:00,
2013-01-24 05:53:00,45.0,44.0,-100.00,South,169,2.0,9.0,97,0.00,,,0.00,0.000000,,2013-01-24 13:53:00,
2013-01-24 06:02:00,45.0,44.0,-100.00,South,169,2.0,9.0,97,0.00,,,0.00,0.000000,,2013-01-24 14:02:00,
2013-01-24 06:12:00,45.0,44.0,-100.00,South,169,2.0,9.0,97,0.00,,,0.00,0.000000,,2013-01-24 14:12:00,
2013-01-24 06:22:00,45.0,44.0,-100.00,South,169,2.0,9.0,97,0.00,,,0.00,0.000000,,2013-01-24 14:22:00,
2013-01-24 06:43:00,42.0,42.0,-100.00,SSE,148,0.0,12.0,100,0.00,,,0.00,0.000000,,2013-01-24 14:43:00,
2013-01-24 06:54:00,42.0,42.0,-100.00,SSE,148,0.0,12.0,100,0.00,,,0.00,0.000000,,2013-01-24 14:54:00,
2013-01-24 07:03:00,42.0,42.0,-100.00,SSE,148,0.0,12.0,100,0.00,,,0.00,0.000000,,2013-01-24 15:03:00,
2013-01-24 07:12:00,42.0,42.0,-100.00,SSE,148,0.0,12.0,100,0.00,,,0.00,0.000000,,2013-01-24 15:12:00,
2013-01-24 07:22:00,42.0,42.0,-100.00,SSE,148,0.0,12.0,100,0.00,,,0.00,0.000000,,2013-01-24 15:22:00,
2013-01-24 07:43:00,42.0,42.0,-100.00,East,98,1.0,6.0,100,0.00,,,0.00,3.000000,,2013-01-24 15:43:00,
2013-01-24 07:53:00,42.0,42.0,-100.00,East,98,1.0,6.0,100,0.00,,,0.00,3.000000,,2013-01-24 15:53:00,
2013-01-24 08:03:00,42.0,42.0,-100.00,East,98,1.0,6.0,100,0.00,,,0.00,3.000000,,2013-01-24 16:03:00,
2013-01-24 08:12:00,42.0,42.0,-100.00,East,98,1.0,6.0,100,0.00,,,0.00,3.000000,,2013-01-24 16:12:00,
2013-01-24 08:22:00,42.0,42.0,-100.00,East,98,1.0,6.0,100,0.00,,,0.00,3.000000,,2013-01-24 16:22:00,
2013-01-24 09:42:00,45.0,45.0,-100.00,ESE,122,1.0,8.0,100,-99.99,,,0.00,96.000000,,2013-01-24 17:42:00,
2013-01-24 09:52:00,45.0,45.0,-100.00,ESE,122,1.0,8.0,100,-99.99,,,0.00,96.000000,,2013-01-24 17:52:00,
2013-01-24 10:02:00,45.0,45.0,-100.00,ESE,122,1.0,8.0,100,-99.99,,,0.00,96.000000,,2013-01-24 18:02:00,
2013-01-24 10:11:00,45.0,45.0,-100.00,ESE,122,1.0,8.0,100,-99.99,,,0.00,96.000000,,2013-01-24 18:11:00,
2013-01-24 10:21:00,45.0,45.0,-100.00,ESE,122,1.0,8.0,100,-99.99,,,0.00,96.000000,,2013-01-24 18:21:00,
2013-01-24 10:43:00,46.0,46.0,-100.00,SSE,168,0.0,7.0,100,0.00,,,0.00,119.000000,,2013-01-24 18:43:00,
2013-01-24 10:53:00,46.0,46.0,-100.00,SSE,168,0.0,7.0,100,0.00,,,0.00,119.000000,,2013-01-24 18:53:00,
2013-01-24 11:01:00,46.0,46.0,-100.00,SSE,168,0.0,7.0,100,0.00,,,0.00,119.000000,,2013-01-24 19:01:00,
2013-01-24 11:12:00,46.0,46.0,-100.00,SSE,168,0.0,7.0,100,0.00,,,0.00,119.000000,,2013-01-24 19:12:00,
2013-01-24 11:21:00,46.0,46.0,-100.00,SSE,168,0.0,7.0,100,0.00,,,0.00,119.000000,,2013-01-24 19:21:00,
2013-01-24 11:42:00,49.0,49.0,-100.00,SSW,192,0.0,8.0,100,0.00,,,0.00,170.000000,,2013-01-24 19:42:00,
2013-01-24 11:52:00,49.0,49.0,-100.00,SSW,192,0.0,8.0,100,0.00,,,0.00,170.000000,,2013-01-24 19:52:00,
2013-01-24 12:02:00,49.0,49.0,-100.00,SSW,192,0.0,8.0,100,0.00,,,0.00,170.000000,,2013-01-24 20:02:00,
2013-01-24 12:11:00,49.0,49.0,-100.00,SSW,192,0.0,8.0,100,0.00,,,0.00,170.000000,,2013-01-24 20:11:00,
2013-01-24 12:21:00,49.0,49.0,-100.00,SSW,192,0.0,8.0,100,0.00,,,0.00,170.000000,,2013-01-24 20:21:00,
2013-01-24 12:42:00,50.0,50.0,-100.00,SSW,211,0.0,8.0,100,0.00,,,0.00,198.000000,,2013-01-24 20:42:00,
2013-01-24 12:52:00,50.0,50.0,-100.00,SSW,211,0.0,8.0,100,0.00,,,0.00,198.000000,,2013-01-24 20:52:00,
2013-01-24 13:02:00,50.0,50.0,-100.00,SSW,211,0.0,8.0,100,0.00,,,0.00,198.000000,,2013-01-24 21:02:00,
2013-01-24 13:11:00,50.0,50.0,-100.00,SSW,211,0.0,8.0,100,0.00,,,0.00,198.000000,,2013-01-24 21:11:00,
2013-01-24 13:21:00,50.0,50.0,-100.00,SSW,211,0.0,8.0,100,0.00,,,0.00,198.000000,,2013-01-24 21:21:00,
2013-01-24 13:43:00,55.0,54.0,-100.00,SSW,207,1.0,7.0,96,0.00,,,0.00,434.000000,,2013-01-24 21:43:00,
2013-01-24 13:53:00,55.0,54.0,-100.00,SSW,207,1.0,7.0,96,0.00,,,0.00,434.000000,,2013-01-24 21:53:00,
2013-01-24 14:02:00,55.0,54.0,-100.00,SSW,207,1.0,7.0,96,0.00,,,0.00,434.000000,,2013-01-24 22:02:00,
2013-01-24 14:12:00,55.0,54.0,-100.00,SSW,207,1.0,7.0,96,0.00,,,0.00,434.000000,,2013-01-24 22:12:00,
2013-01-24 14:21:00,55.0,54.0,-100.00,SSW,207,1.0,7.0,96,0.00,,,0.00,434.000000,,2013-01-24 22:21:00,
2013-01-24 14:42:00,54.0,51.0,-100.00,WNW,289,0.0,8.0,90,0.00,,,0.00,292.000000,,2013-01-24 22:42:00,
2013-01-24 14:53:00,54.0,51.0,-100.00,WNW,289,0.0,8.0,90,0.00,,,0.00,292.000000,,2013-01-24 22:53:00,
2013-01-24 15:02:00,54.0,51.0,-100.00,WNW,289,0.0,8.0,90,0.00,,,0.00,292.000000,,2013-01-24 23:02:00,
2013-01-24 15:11:00,54.0,51.0,-100.00,WNW,289,0.0,8.0,90,0.00,,,0.00,292.000000,,2013-01-24 23:11:00,
2013-01-24 15:21:00,54.0,51.0,-100.00,WNW,289,0.0,8.0,90,0.00,,,0.00,292.000000,,2013-01-24 23:21:00,
2013-01-24 15:42:00,54.0,49.0,-100.00,WNW,289,0.0,4.0,82,0.00,,,0.00,287.000000,,2013-01-24 23:42:00,
2013-01-24 15:52:00,54.0,49.0,-100.00,WNW,289,0.0,4.0,82,0.00,,,0.00,287.000000,,2013-01-24 23:52:00,
2013-01-24 16:02:00,54.0,49.0,-100.00,WNW,289,0.0,4.0,82,0.00,,,0.00,287.000000,,2013-01-25 00:02:00,
2013-01-24 16:12:00,54.0,49.0,-100.00,WNW,289,0.0,4.0,82,0.00,,,0.00,287.000000,,2013-01-25 00:12:00,
2013-01-24 16:21:00,54.0,49.0,-100.00,WNW,289,0.0,4.0,82,0.00,,,0.00,287.000000,,2013-01-25 00:21:00,
2013-01-24 16:42:00,51.0,50.0,-100.00,SW,220,0.0,4.0,96,0.00,,,0.00,88.000000,,2013-01-25 00:42:00,
2013-01-24 16:52:00,51.0,50.0,-100.00,SW,220,0.0,4.0,96,0.00,,,0.00,88.000000,,2013-01-25 00:52:00,
2013-01-24 17:01:00,51.0,50.0,-100.00,SW,220,0.0,4.0,96,0.00,,,0.00,88.000000,,2013-01-25 01:01:00,
2013-01-24 17:11:00,51.0,50.0,-100.00,SW,220,0.0,4.0,96,0.00,,,0.00,88.000000,,2013-01-25 01:11:00,
2013-01-24 17:21:00,51.0,50.0,-100.00,SW,220,0.0,4.0,96,0.00,,,0.00,88.000000,,2013-01-25 01:21:00,
2013-01-24 17:42:00,46.0,46.0,-100.00,NNE,30,0.0,0.0,100,0.00,,,0.00,19.000000,,2013-01-25 01:42:00,
2013-01-24 17:52:00,46.0,46.0,-100.00,NNE,30,0.0,0.0,100,0.00,,,0.00,19.000000,,2013-01-25 01:52:00,
2013-01-24 18:02:00,46.0,46.0,-100.00,NNE,30,0.0,0.0,100,0.00,,,0.00,19.000000,,2013-01-25 02:02:00,
2013-01-24 18:11:00,46.0,46.0,-100.00,NNE,30,0.0,0.0,100,0.00,,,0.00,19.000000,,2013-01-25 02:11:00,
2013-01-24 18:21:00,46.0,46.0,-100.00,NNE,30,0.0,0.0,100,0.00,,,0.00,19.000000,,2013-01-25 02:21:00,
2013-01-24 18:43:00,47.0,47.0,-100.00,ENE,65,4.0,8.0,100,0.00,,,0.00,0.000000,,2013-01-25 02:43:00,
2013-01-24 18:52:00,47.0,47.0,-100.00,ENE,65,4.0,8.0,100,0.00,,,0.00,0.000000,,2013-01-25 02:52:00,
2013-01-24 19:02:00,47.0,47.0,-100.00,ENE,65,4.0,8.0,100,0.00,,,0.00,0.000000,,2013-01-25 03:02:00,
2013-01-24 19:12:00,47.0,47.0,-100.00,ENE,65,4.0,8.0,100,0.00,,,0.00,0.000000,,2013-01-25 03:12:00,
2013-01-24 19:21:00,47.0,47.0,-100.00,ENE,65,4.0,8.0,100,0.00,,,0.00,0.000000,,2013-01-25 03:21:00,
2013-01-24 19:42:00,44.0,44.0,-100.00,ENE,75,0.0,8.0,100,0.00,,,0.00,0.000000,,2013-01-25 03:42:00,
2013-01-24 19:52:00,44.0,44.0,-100.00,ENE,75,0.0,8.0,100,0.00,,,0.00,0.000000,,2013-01-25 03:52:00,
2013-01-24 20:02:00,44.0,44.0,-100.00,ENE,75,0.0,8.0,100,0.00,,,0.00,0.000000,,2013-01-25 04:02:00,
2013-01-24 20:11:00,44.0,44.0,-100.00,ENE,75,0.0,8.0,100,0.00,,,0.00,0.000000,,2013-01-25 04:11:00,
2013-01-24 20:22:00,44.0,44.0,-100.00,ENE,75,0.0,8.0,100,0.00,,,0.00,0.000000,,2013-01-25 04:22:00,
2013-01-24 20:42:00,45.0,45.0,-100.00,NE,56,2.0,8.0,100,0.00,,,0.00,0.000000,,2013-01-25 04:42:00,
2013-01-24 20:51:00,45.0,45.0,-100.00,NE,56,2.0,8.0,100,0.00,,,0.00,0.000000,,2013-01-25 04:51:00,
2013-01-24 21:03:00,45.0,45.0,-100.00,NE,56,2.0,8.0,100,0.00,,,0.00,0.000000,,2013-01-25 05:03:00,
2013-01-24 21:12:00,45.0,45.0,-100.00,NE,56,2.0,8.0,100,0.00,,,0.00,0.000000,,2013-01-25 05:12:00,
2013-01-24 21:22:00,45.0,45.0,-100.00,NE,56,2.0,8.0,100,0.00,,,0.00,0.000000,,2013-01-25 05:22:00,
2013-01-24 21:43:00,46.0,46.0,-100.00,ENE,70,1.0,6.0,100,0.00,,,0.00,0.000000,,2013-01-25 05:43:00,
2013-01-24 21:52:00,46.0,46.0,-100.00,ENE,70,1.0,6.0,100,0.00,,,0.00,0.000000,,2013-01-25 05:52:00,
2013-01-24 22:02:00,46.0,46.0,-100.00,ENE,70,1.0,6.0,100,0.00,,,0.00,0.000000,,2013-01-25 06:02:00,
2013-01-24 22:11:00,46.0,46.0,-100.00,ENE,70,1.0,6.0,100,0.00,,,0.00,0.000000,,2013-01-25 06:11:00,
2013-01-24 22:21:00,46.0,46.0,-100.00,ENE,70,1.0,6.0,100,0.00,,,0.00,0.000000,,2013-01-25 06:21:00,
2013-01-24 22:42:00,44.0,44.0,-100.00,ESE,106,0.0,7.0,100,0.00,,,0.00,0.000000,,2013-01-25 06:42:00,
2013-01-24 22:52:00,44.0,44.0,-100.00,ESE,106,0.0,7.0,100,0.00,,,0.00,0.000000,,2013-01-25 06:52:00,
2013-01-24 23:01:00,44.0,44.0,-100.00,ESE,106,0.0,7.0,100,0.00,,,0.00,0.000000,,2013-01-25 07:01:00,
2013-01-24 23:11:00,44.0,44.0,-100.00,ESE,106,0.0,7.0,100,0.00,,,0.00,0.000000,,2013-01-25 07:11:00,
2013-01-24 23:21:00,44.0,44.0,-100.00,ESE,106,0.0,7.0,100,0.00,,,0.00,0.000000,,2013-01-25 07:21:00,
2013-01-24 23:42:00,44.0,44.0,-100.00,ESE,105,0.0,7.0,100,0.00,,,0.00,0.000000,,2013-01-25 07:42:00,
2013-01-24 23:52:00,44.0,44.0,-100.00,ESE,105,0.0,7.0,100,0.00,,,0.00,0.000000,,2013-01-25 07:52:00,